Terminal Aerodrome Forecast
Issued by NWS Twin Cities, MN

Home | Current Version | Previous Version | Text Only | Print | Product List | Glossary Off
Versions: 1 2 3 4 5 6 7 8 9 10 11 12 13 14 15 16

000
FTUS43 KMPX 151120
TAFEAU
TAF
KEAU 151120Z 1512/1612 05003KT P6SM OVC004
     FM151500 08005KT P6SM SCT007 SCT250
     FM151700 09005KT P6SM SCT250
     FM160000 11003KT P6SM OVC120
     FM161000 11004KT P6SM OVC025=

USA.gov is the U.S. government's official web portal to all federal, state and local government web resources and services.